Terminal Aerodrome Forecast
Issued by NWS Sioux Falls, SD

Home | Current Version | Previous Version | Graphics & Text | Print | Product List | Glossary Off
Versions: 1 2 3 4 5 6 7 8 9 10 11 12 13 14 15 16 17

000
FTUS43 KFSD 250531
TAFHON
TAF
KHON 250531Z 2506/2606 11005KT P6SM FEW100 BKN200
     FM250800 11007KT P6SM -TSRA BKN050CB BKN090
     FM251000 14010KT P6SM -SHRA SCT040 BKN090
     FM251200 15006KT P6SM OVC040
     FM251700 18008KT P6SM BKN040
     FM252200 21008KT P6SM SCT050 SCT200=

USA.gov is the U.S. government's official web portal to all federal, state and local government web resources and services.